Time;durP1;ratioP1;P1;durP2;ratioP2;P2;SDS_P1;SDS_P2;PMS_P1;PMS_P2;Temp;Humidity;BMP_temperature;BMP_pressure;BME280_temperature;BME280_humidity;BME280_pressure;Samples;Min_cycle;Max_cycle;Signal;HPM_P1;HPM_P2
2022/12/21 00:01:25;;;;;;;5.70;1.05;;;28.30;47.90;;;;;;5041833;28;20025;-61
2022/12/21 00:04:03;;;;;;;6.03;0.77;;;28.70;46.30;;;;;;5039742;28;20108;-61
2022/12/21 00:06:33;;;;;;;2.15;0.47;;;28.70;45.80;;;;;;5039143;28;20034;-61
2022/12/21 00:09:02;;;;;;;1.65;0.40;;;29.10;47.00;;;;;;5032379;28;20059;-64
2022/12/21 00:11:31;;;;;;;1.75;0.50;;;29.70;43.30;;;;;;5046402;28;20055;-63
2022/12/21 00:14:00;;;;;;;2.75;0.68;;;29.20;43.80;;;;;;5046712;28;20448;-63
2022/12/21 00:16:33;;;;;;;5.88;0.47;;;29.20;43.60;;;;;;5043937;28;20519;-64
2022/12/21 00:19:02;;;;;;;1.58;0.50;;;28.80;42.40;;;;;;5045216;28;20153;-63
2022/12/21 00:21:33;;;;;;;2.05;0.38;;;27.50;43.70;;;;;;5044351;28;20032;-63
2022/12/21 00:24:00;;;;;;;2.20;0.85;;;27.20;44.00;;;;;;5042693;28;20059;-62
2022/12/21 00:26:31;;;;;;;1.90;0.60;;;26.90;45.40;;;;;;5040858;28;20028;-63
2022/12/21 00:28:59;;;;;;;1.30;0.70;;;26.10;47.60;;;;;;5056777;28;20029;-65
2022/12/21 00:31:39;;;;;;;4.15;0.50;;;25.70;48.00;;;;;;5059041;28;20103;-66
2022/12/21 00:34:06;;;;;;;3.83;0.77;;;26.10;50.30;;;;;;5051838;28;20041;-66
2022/12/21 00:36:34;;;;;;;1.15;0.40;;;26.50;48.60;;;;;;5045656;28;20029;-65
2022/12/21 00:39:01;;;;;;;2.75;0.70;;;27.20;46.70;;;;;;5039167;28;20432;-65
2022/12/21 00:41:29;;;;;;;4.13;0.75;;;27.50;47.20;;;;;;5045460;28;20017;-65
2022/12/21 00:43:57;;;;;;;4.05;0.95;;;27.60;45.80;;;;;;5055333;28;20024;-65
2022/12/21 00:46:26;;;;;;;3.95;0.60;;;27.60;45.90;;;;;;5048831;28;20107;-65
2022/12/21 00:48:55;;;;;;;2.45;0.57;;;27.90;45.10;;;;;;5038294;28;20064;-65
2022/12/21 00:51:24;;;;;;;6.43;0.60;;;28.40;45.40;;;;;;5050426;28;20060;-65
2022/12/21 00:53:53;;;;;;;2.30;0.68;;;28.80;45.10;;;;;;5047031;28;20513;-66
2022/12/21 00:56:21;;;;;;;1.98;0.47;;;28.50;45.00;;;;;;5034726;28;20071;-65
2022/12/21 00:58:48;;;;;;;0.85;0.45;;;28.60;42.90;;;;;;5047472;28;20063;-65
2022/12/21 01:01:32;;;;;;;3.00;1.10;;;28.60;47.10;;;;;;5040599;28;20494;-66
2022/12/21 01:04:00;;;;;;;6.25;1.50;;;28.30;43.70;;;;;;5047969;28;20653;-66
2022/12/21 01:06:36;;;;;;;2.28;1.00;;;28.40;47.10;;;;;;5028751;28;20029;-62
2022/12/21 01:09:07;;;;;;;3.75;0.90;;;29.00;44.70;;;;;;5022367;28;20025;-63
2022/12/21 01:11:34;;;;;;;5.10;1.38;;;29.30;42.90;;;;;;5040265;28;20171;-63
2022/12/21 01:14:01;;;;;;;2.08;0.85;;;29.00;44.20;;;;;;5039086;28;20037;-63
2022/12/21 01:16:31;;;;;;;3.10;0.70;;;29.50;45.10;;;;;;5046574;28;21580;-63
2022/12/21 01:19:01;;;;;;;2.58;0.60;;;29.30;42.40;;;;;;5046041;28;20040;-63
2022/12/21 01:21:30;;;;;;;2.92;1.25;;;28.60;42.70;;;;;;5046801;28;20433;-63
2022/12/21 01:23:58;;;;;;;3.15;0.82;;;28.20;43.40;;;;;;5036790;28;20366;-63
2022/12/21 01:26:26;;;;;;;4.45;0.50;;;28.30;42.60;;;;;;5039056;28;20592;-63
2022/12/21 01:28:53;;;;;;;1.83;0.70;;;28.40;43.30;;;;;;5044260;28;20032;-64
2022/12/21 01:31:21;;;;;;;2.33;0.50;;;28.30;45.80;;;;;;5054122;28;20036;-63
2022/12/21 01:33:48;;;;;;;4.97;0.70;;;28.90;45.30;;;;;;5053272;28;20032;-63
2022/12/21 01:36:18;;;;;;;5.47;0.70;;;29.00;43.40;;;;;;5049269;28;20107;-64
2022/12/21 01:38:46;;;;;;;3.03;1.00;;;28.50;44.60;;;;;;5040930;28;20036;-63
2022/12/21 01:41:19;;;;;;;3.28;0.77;;;28.60;45.50;;;;;;5040067;28;20031;-63
2022/12/21 01:43:51;;;;;;;1.65;0.45;;;29.00;45.40;;;;;;5037074;28;20064;-64
2022/12/21 01:46:24;;;;;;;3.15;0.52;;;28.90;42.00;;;;;;5039083;28;20519;-63
2022/12/21 01:49:03;;;;;;;2.22;0.60;;;28.10;42.90;;;;;;5059199;28;20038;-63
2022/12/21 01:51:34;;;;;;;3.97;1.10;;;27.50;43.10;;;;;;5047313;28;20033;-63
2022/12/21 01:54:48;;;;;;;4.22;0.80;;;27.80;46.20;;;;;;5043189;28;20136;-63
2022/12/21 01:57:17;;;;;;;2.40;0.63;;;27.90;44.70;;;;;;5047117;28;20131;-63
2022/12/21 01:59:53;;;;;;;4.13;0.65;;;28.10;43.50;;;;;;5041494;28;20448;-63
2022/12/21 02:02:40;;;;;;;2.60;0.93;;;27.90;42.80;;;;;;5038306;28;20175;-63
2022/12/21 02:05:31;;;;;;;2.03;0.60;;;27.30;43.80;;;;;;5035515;28;20113;-63
2022/12/21 02:08:03;;;;;;;1.63;0.52;;;27.30;45.40;;;;;;5043289;28;20477;-63
2022/12/21 02:10:32;;;;;;;2.28;0.90;;;27.90;44.60;;;;;;5041961;28;20329;-63
2022/12/21 02:13:03;;;;;;;1.98;0.50;;;27.50;43.50;;;;;;5046779;28;20090;-64
2022/12/21 02:15:48;;;;;;;2.42;0.60;;;27.50;44.80;;;;;;5050048;28;20025;-64
2022/12/21 02:18:35;;;;;;;0.90;0.60;;;27.70;43.90;;;;;;5065216;28;20013;-64
2022/12/21 02:21:17;;;;;;;3.53;0.68;;;28.10;47.20;;;;;;5047257;28;20037;-63
2022/12/21 02:24:14;;;;;;;4.07;0.50;;;28.80;43.20;;;;;;5064162;28;20024;-64
2022/12/21 02:26:57;;;;;;;1.73;0.60;;;29.20;44.80;;;;;;5039648;28;20017;-66
2022/12/21 02:30:02;;;;;;;2.92;0.50;;;29.80;42.70;;;;;;5046994;28;20389;-63
2022/12/21 02:32:29;;;;;;;6.45;1.10;;;29.40;42.80;;;;;;5035642;28;20510;-64
2022/12/21 02:35:17;;;;;;;2.83;0.55;;;29.10;41.90;;;;;;5037623;28;20043;-64
2022/12/21 02:38:12;;;;;;;2.50;0.65;;;28.50;42.50;;;;;;5046036;28;20025;-63
2022/12/21 02:41:00;;;;;;;2.65;1.15;;;28.20;44.00;;;;;;5053825;28;20096;-63
2022/12/21 02:44:14;;;;;;;2.63;0.60;;;28.10;45.00;;;;;;5037680;28;20479;-63
2022/12/21 02:46:49;;;;;;;3.70;0.63;;;28.40;44.40;;;;;;5037199;28;20040;-66
2022/12/21 02:49:43;;;;;;;3.83;1.33;;;28.30;44.60;;;;;;5036955;28;20025;-64
2022/12/21 02:52:39;;;;;;;2.43;1.13;;;27.60;45.10;;;;;;5042334;28;20033;-67
2022/12/21 02:55:11;;;;;;;3.15;0.82;;;27.30;45.00;;;;;;5046756;28;20120;-64
2022/12/21 02:57:41;;;;;;;4.55;0.70;;;26.40;45.90;;;;;;5051924;28;20705;-63
2022/12/21 03:00:12;;;;;;;2.40;0.60;;;26.60;46.50;;;;;;5043149;28;20077;-63
2022/12/21 03:06:27;;;;;;;5.60;0.70;;;27.30;45.80;;;;;;5038577;28;20032;-64
2022/12/21 03:09:40;;;;;;;1.50;0.57;;;27.30;45.60;;;;;;5043607;28;20028;-64
2022/12/21 03:12:13;;;;;;;2.35;0.68;;;27.50;45.20;;;;;;5042288;28;20128;-63
2022/12/21 03:15:28;;;;;;;2.97;0.90;;;27.50;46.10;;;;;;5045671;28;20239;-65
2022/12/21 03:18:28;;;;;;;2.78;0.60;;;27.90;45.20;;;;;;5086040;28;20035;-64
2022/12/21 03:20:58;;;;;;;3.28;0.70;;;27.70;46.20;;;;;;5038922;28;20486;-63
2022/12/21 03:23:47;;;;;;;2.95;0.60;;;27.40;46.50;;;;;;5055146;28;20374;-64
2022/12/21 03:26:22;;;;;;;4.03;0.98;;;27.50;47.20;;;;;;5060902;28;20087;-63
2022/12/21 03:28:51;;;;;;;6.38;0.70;;;27.70;46.80;;;;;;5047301;28;20035;-63
2022/12/21 03:31:24;;;;;;;1.65;0.75;;;28.00;46.10;;;;;;5045641;28;20040;-64
2022/12/21 03:34:06;;;;;;;4.82;0.85;;;28.20;46.50;;;;;;5042788;28;20041;-63
2022/12/21 03:36:47;;;;;;;8.00;0.70;;;28.00;45.50;;;;;;5044392;28;20029;-64
2022/12/21 03:39:18;;;;;;;2.47;0.60;;;27.80;46.20;;;;;;5055488;28;20029;-63
2022/12/21 03:42:24;;;;;;;3.58;0.60;;;27.70;46.40;;;;;;5052447;28;20108;-63
2022/12/21 03:45:02;;;;;;;5.85;1.10;;;27.50;46.70;;;;;;5030783;28;20128;-64
2022/12/21 03:47:35;;;;;;;9.85;0.80;;;27.20;47.20;;;;;;5044396;28;20045;-63
2022/12/21 03:50:10;;;;;;;3.25;1.25;;;26.50;48.00;;;;;;5043621;28;20033;-63
2022/12/21 03:52:44;;;;;;;3.38;0.65;;;26.40;49.40;;;;;;5040264;28;20119;-62
2022/12/21 03:55:21;;;;;;;5.55;0.60;;;26.30;50.00;;;;;;5038154;28;20051;-62
2022/12/21 03:57:49;;;;;;;3.60;0.60;;;26.60;49.80;;;;;;5034967;28;20025;-63
2022/12/21 04:00:17;;;;;;;2.97;0.77;;;26.60;48.60;;;;;;5046467;28;20056;-63
2022/12/21 04:03:17;;;;;;;3.42;0.68;;;26.80;48.50;;;;;;5060777;28;20017;-63
2022/12/21 04:06:08;;;;;;;4.70;1.05;;;26.60;48.60;;;;;;5052481;28;20044;-63
2022/12/21 04:08:37;;;;;;;3.10;1.30;;;26.70;50.50;;;;;;5050868;28;20021;-63
2022/12/21 04:11:05;;;;;;;1.95;0.98;;;26.90;49.00;;;;;;5046463;28;20070;-63
2022/12/21 04:13:34;;;;;;;3.40;0.65;;;26.80;49.80;;;;;;5051547;28;20048;-63
2022/12/21 04:16:04;;;;;;;2.25;0.60;;;26.60;49.40;;;;;;5037379;28;20029;-65
2022/12/21 04:21:19;;;;;;;1.52;0.50;;;26.20;48.90;;;;;;5053594;28;20090;-63
2022/12/21 04:29:17;;;;;;;4.57;0.63;;;26.50;49.60;;;;;;5052882;28;20526;-63
2022/12/21 04:31:44;;;;;;;1.30;0.40;;;26.50;49.90;;;;;;5050956;28;20025;-63
2022/12/21 04:34:11;;;;;;;1.80;0.68;;;26.10;49.50;;;;;;5051229;28;20436;-64
2022/12/21 04:39:28;;;;;;;1.95;0.55;;;26.30;49.30;;;;;;5047659;28;20053;-62
2022/12/21 04:41:55;;;;;;;1.83;0.73;;;26.30;50.00;;;;;;5047952;28;20478;-63
2022/12/21 04:44:23;;;;;;;2.70;0.70;;;26.30;49.30;;;;;;4944855;28;3111847;-63
2022/12/21 04:46:51;;;;;;;3.00;0.60;;;26.40;49.00;;;;;;5058690;28;20081;-63
2022/12/21 04:49:18;;;;;;;6.05;1.15;;;26.00;50.00;;;;;;5057079;28;20425;-63
2022/12/21 04:51:45;;;;;;;1.15;0.45;;;26.00;50.40;;;;;;5047834;28;20104;-63
2022/12/21 04:54:13;;;;;;;3.13;0.82;;;25.90;49.70;;;;;;5049985;28;20087;-63
2022/12/21 04:56:40;;;;;;;1.75;0.38;;;25.60;50.10;;;;;;5056612;28;20416;-62
2022/12/21 04:59:07;;;;;;;1.67;0.73;;;26.00;51.70;;;;;;5056959;28;20083;-63
2022/12/21 05:01:34;;;;;;;2.53;0.52;;;25.60;50.60;;;;;;5035996;28;20486;-63
2022/12/21 05:04:02;;;;;;;1.63;0.50;;;25.60;51.20;;;;;;5050929;28;20020;-64
2022/12/21 05:06:29;;;;;;;3.05;0.55;;;25.50;51.30;;;;;;5064889;28;20032;-64
2022/12/21 05:08:57;;;;;;;4.80;0.55;;;25.70;51.10;;;;;;5047364;28;20031;-64
2022/12/21 05:11:25;;;;;;;6.25;1.13;;;25.80;52.10;;;;;;5045406;28;20021;-65
2022/12/21 05:13:52;;;;;;;3.22;0.70;;;25.70;51.20;;;;;;5038903;28;20378;-64
2022/12/21 05:16:22;;;;;;;3.63;0.50;;;25.70;52.40;;;;;;5045381;28;20021;-64
2022/12/21 05:18:52;;;;;;;3.15;1.00;;;25.50;52.00;;;;;;5045809;28;20119;-64
2022/12/21 05:21:19;;;;;;;3.67;0.50;;;25.30;52.60;;;;;;5056173;28;20027;-64
2022/12/21 05:23:47;;;;;;;4.05;0.65;;;25.00;52.40;;;;;;5051168;28;20068;-63
2022/12/21 05:26:14;;;;;;;2.38;0.47;;;24.80;53.50;;;;;;5045580;28;20070;-64
2022/12/21 05:28:43;;;;;;;2.15;0.55;;;24.90;53.40;;;;;;5041112;28;20046;-64
2022/12/21 05:31:10;;;;;;;1.98;0.60;;;25.00;52.70;;;;;;5037298;28;20026;-63
2022/12/21 05:33:37;;;;;;;7.35;1.70;;;25.30;52.30;;;;;;5040728;28;20033;-63
2022/12/21 05:36:06;;;;;;;2.65;0.40;;;25.10;52.10;;;;;;5036700;28;20022;-64
2022/12/21 05:38:34;;;;;;;1.88;0.60;;;25.20;53.20;;;;;;5034881;28;20025;-63
2022/12/21 05:41:01;;;;;;;2.50;0.57;;;25.40;52.70;;;;;;5050250;28;20068;-63
2022/12/21 05:43:29;;;;;;;4.32;0.60;;;25.60;51.80;;;;;;5047589;28;20017;-64
2022/12/21 05:46:05;;;;;;;2.20;0.50;;;25.70;52.40;;;;;;5039882;28;20069;-63
2022/12/21 05:48:32;;;;;;;2.63;0.55;;;25.50;52.60;;;;;;5058216;28;20025;-63
2022/12/21 05:51:05;;;;;;;8.40;0.60;;;25.40;53.30;;;;;;5042238;28;20025;-64
2022/12/21 05:53:32;;;;;;;2.95;0.50;;;25.50;53.40;;;;;;5036976;28;20033;-62
2022/12/21 05:55:59;;;;;;;2.17;0.50;;;25.10;53.60;;;;;;5051737;28;20021;-62
2022/12/21 05:58:26;;;;;;;1.08;0.57;;;25.10;53.70;;;;;;5050880;28;20040;-62
2022/12/21 06:00:54;;;;;;;2.00;0.57;;;25.20;54.30;;;;;;5047032;28;20040;-63
2022/12/21 06:03:21;;;;;;;2.00;0.43;;;24.80;54.40;;;;;;5049313;28;20032;-63
2022/12/21 06:05:48;;;;;;;7.80;0.90;;;24.60;55.10;;;;;;5056075;28;20028;-63
2022/12/21 06:08:15;;;;;;;2.42;0.55;;;24.50;55.70;;;;;;5044215;28;20025;-63
2022/12/21 06:10:44;;;;;;;4.25;0.50;;;24.50;55.70;;;;;;5035808;28;20057;-63
2022/12/21 06:13:11;;;;;;;3.15;0.40;;;24.80;55.50;;;;;;5050305;28;20031;-63
2022/12/21 06:15:38;;;;;;;2.40;0.60;;;24.60;54.90;;;;;;5052896;28;20029;-62
2022/12/21 06:18:06;;;;;;;2.83;1.08;;;24.50;56.10;;;;;;5053278;28;20029;-62
2022/12/21 06:20:33;;;;;;;2.45;0.35;;;24.40;55.60;;;;;;5063601;28;20048;-62
2022/12/21 06:23:00;;;;;;;2.53;0.50;;;24.30;55.60;;;;;;5058044;28;20040;-63
2022/12/21 06:25:27;;;;;;;3.05;0.60;;;24.30;55.80;;;;;;5052044;28;20029;-63
2022/12/21 06:27:54;;;;;;;3.15;0.63;;;24.40;55.70;;;;;;5058298;28;20104;-63
2022/12/21 06:30:22;;;;;;;1.83;0.50;;;24.50;55.70;;;;;;5048421;28;20079;-63
2022/12/21 06:32:49;;;;;;;1.63;0.50;;;24.50;55.50;;;;;;5056802;28;20021;-63
2022/12/21 06:35:17;;;;;;;2.45;0.50;;;24.50;55.60;;;;;;5064526;28;20119;-63
2022/12/21 06:37:44;;;;;;;7.80;0.98;;;24.50;56.20;;;;;;5044392;28;20037;-63
2022/12/21 06:40:12;;;;;;;2.63;0.52;;;24.50;56.40;;;;;;5062688;28;20025;-63
2022/12/21 06:42:39;;;;;;;2.80;0.60;;;24.40;56.00;;;;;;5038795;28;20025;-64
2022/12/21 06:45:06;;;;;;;2.05;0.50;;;24.00;56.30;;;;;;5054384;28;20033;-64
2022/12/21 06:47:34;;;;;;;3.88;0.50;;;23.70;57.90;;;;;;5063017;28;20081;-62
2022/12/21 06:50:01;;;;;;;4.32;0.70;;;23.80;57.20;;;;;;5052181;28;20033;-63
2022/12/21 06:52:28;;;;;;;4.57;1.50;;;23.50;57.40;;;;;;5063715;28;20021;-62
2022/12/21 06:54:55;;;;;;;3.17;0.40;;;23.40;58.00;;;;;;5049981;28;20471;-63
2022/12/21 06:57:22;;;;;;;4.35;0.70;;;23.00;58.90;;;;;;5048869;28;20021;-63
2022/12/21 06:59:50;;;;;;;3.33;0.98;;;22.90;59.60;;;;;;5039365;28;20105;-63
2022/12/21 07:02:17;;;;;;;2.78;0.43;;;22.80;59.50;;;;;;5039899;28;20533;-63
2022/12/21 07:04:44;;;;;;;0.95;0.43;;;22.60;60.00;;;;;;5042519;28;20025;-63
2022/12/21 07:07:11;;;;;;;2.90;0.30;;;22.60;59.40;;;;;;5062788;28;20365;-64
2022/12/21 07:09:39;;;;;;;5.55;1.25;;;22.50;60.20;;;;;;5043736;28;20025;-63
2022/12/21 07:12:06;;;;;;;4.57;0.65;;;22.10;60.30;;;;;;5039324;28;20056;-62
2022/12/21 07:14:33;;;;;;;2.63;1.15;;;22.10;61.00;;;;;;5036150;28;20041;-63
2022/12/21 07:17:01;;;;;;;1.70;0.47;;;22.40;60.30;;;;;;5036933;28;20260;-63
2022/12/21 07:19:29;;;;;;;2.83;0.60;;;22.40;60.70;;;;;;5036829;28;20037;-63
2022/12/21 07:21:56;;;;;;;2.92;0.38;;;22.50;60.80;;;;;;5039822;28;20060;-64
2022/12/21 07:24:24;;;;;;;8.38;0.93;;;22.60;60.70;;;;;;5038510;28;20506;-63
2022/12/21 07:26:51;;;;;;;1.65;0.55;;;22.80;59.90;;;;;;5035429;28;20083;-63
2022/12/21 07:29:18;;;;;;;2.50;0.60;;;22.80;59.80;;;;;;5034922;28;20071;-64
2022/12/21 07:31:45;;;;;;;6.35;0.68;;;22.70;60.00;;;;;;5035564;28;20479;-64
2022/12/21 07:34:13;;;;;;;4.22;0.68;;;22.30;60.70;;;;;;5037838;28;20039;-63
2022/12/21 07:36:40;;;;;;;0.70;0.40;;;22.10;61.70;;;;;;5047383;28;20558;-63
2022/12/21 07:39:07;;;;;;;1.45;0.38;;;22.10;62.20;;;;;;5041266;28;20036;-63
2022/12/21 07:41:34;;;;;;;2.40;0.90;;;22.00;61.70;;;;;;5040211;28;20108;-63
2022/12/21 07:44:01;;;;;;;3.33;1.10;;;21.90;61.70;;;;;;5043622;28;20116;-63
2022/12/21 07:46:29;;;;;;;4.40;1.95;;;21.80;62.20;;;;;;5038774;28;20037;-64
2022/12/21 07:48:56;;;;;;;3.45;0.95;;;21.90;61.90;;;;;;5040751;28;20025;-62
2022/12/21 07:51:23;;;;;;;3.47;0.55;;;21.80;61.80;;;;;;5044196;28;20079;-62
2022/12/21 07:53:50;;;;;;;2.10;0.82;;;21.70;62.10;;;;;;5054001;28;20210;-63
2022/12/21 07:56:19;;;;;;;1.58;0.50;;;21.40;62.60;;;;;;5039789;28;20042;-63
2022/12/21 07:58:46;;;;;;;5.78;2.78;;;21.50;62.40;;;;;;5047762;28;20065;-63
2022/12/21 08:01:16;;;;;;;4.80;1.80;;;21.40;63.20;;;;;;5039044;28;20034;-63
2022/12/21 08:03:45;;;;;;;8.43;2.20;;;21.40;63.20;;;;;;5049668;28;20072;-64
2022/12/21 08:06:13;;;;;;;3.42;1.15;;;21.30;63.50;;;;;;5062372;28;20143;-63
2022/12/21 08:08:41;;;;;;;3.13;1.33;;;21.20;63.50;;;;;;5051282;28;20037;-65
2022/12/21 08:11:18;;;;;;;6.47;2.00;;;21.10;63.90;;;;;;5062170;28;20035;-63
2022/12/21 08:13:47;;;;;;;2.67;0.75;;;20.90;64.20;;;;;;5046520;28;20060;-63
2022/12/21 08:16:17;;;;;;;6.13;2.47;;;20.80;64.60;;;;;;5066636;28;20009;-62
2022/12/21 08:18:44;;;;;;;3.38;1.02;;;20.60;65.20;;;;;;5046564;28;20048;-62
2022/12/21 08:21:12;;;;;;;4.00;0.98;;;20.50;66.00;;;;;;5050153;28;20025;-65
2022/12/21 08:23:40;;;;;;;4.78;1.20;;;20.40;66.30;;;;;;5050833;28;20029;-62
2022/12/21 08:26:11;;;;;;;2.47;0.82;;;20.30;66.70;;;;;;5043045;28;20029;-64
2022/12/21 08:28:39;;;;;;;3.55;1.20;;;20.20;66.40;;;;;;5050188;28;20136;-63
2022/12/21 08:31:09;;;;;;;3.25;1.00;;;20.10;67.10;;;;;;5044920;28;20029;-62
2022/12/21 08:33:37;;;;;;;3.42;1.10;;;20.00;67.80;;;;;;5045843;28;20036;-63
2022/12/21 08:36:10;;;;;;;3.88;0.77;;;19.80;68.60;;;;;;5043878;28;20516;-64
2022/12/21 08:38:37;;;;;;;2.47;0.85;;;19.80;69.10;;;;;;5034528;28;20025;-64
2022/12/21 08:41:05;;;;;;;3.38;0.57;;;19.70;69.50;;;;;;5036168;28;20048;-64
2022/12/21 08:43:36;;;;;;;4.35;0.50;;;19.60;69.80;;;;;;5044319;28;20036;-64
2022/12/21 08:46:04;;;;;;;1.83;0.30;;;19.40;71.00;;;;;;5035204;28;20128;-63
2022/12/21 08:48:32;;;;;;;1.60;0.73;;;19.30;70.70;;;;;;5043276;28;20029;-62
2022/12/21 08:51:00;;;;;;;3.08;0.60;;;19.30;72.00;;;;;;5052438;28;20476;-64
2022/12/21 08:53:27;;;;;;;1.33;0.47;;;19.20;72.10;;;;;;5037688;28;20568;-67
2022/12/21 08:55:55;;;;;;;1.35;0.60;;;19.10;72.90;;;;;;5046202;28;20047;-66
2022/12/21 08:58:24;;;;;;;0.85;0.35;;;19.00;74.00;;;;;;5035592;28;20075;-66
2022/12/21 09:00:55;;;;;;;2.83;0.60;;;18.90;75.00;;;;;;5042880;28;20086;-65
2022/12/21 09:03:26;;;;;;;3.03;0.85;;;18.80;76.20;;;;;;5063197;28;20020;-66
2022/12/21 09:05:55;;;;;;;2.47;0.60;;;18.70;77.70;;;;;;5033012;28;20029;-64
2022/12/21 09:08:22;;;;;;;1.73;0.60;;;18.60;79.30;;;;;;5034579;28;20083;-67
2022/12/21 09:10:50;;;;;;;2.83;0.65;;;18.60;80.80;;;;;;5047156;28;20033;-64
2022/12/21 09:13:17;;;;;;;0.70;0.32;;;18.50;81.10;;;;;;5034840;28;20504;-62
2022/12/21 09:15:44;;;;;;;2.80;0.40;;;18.30;82.80;;;;;;5045485;28;20029;-62
2022/12/21 09:18:12;;;;;;;3.72;0.57;;;18.30;82.70;;;;;;5046910;28;20029;-62
2022/12/21 09:20:39;;;;;;;1.48;0.30;;;18.10;83.40;;;;;;5041509;28;20060;-61
2022/12/21 09:23:07;;;;;;;2.50;0.50;;;18.10;84.70;;;;;;5034236;28;20029;-61
2022/12/21 09:25:34;;;;;;;3.63;0.50;;;18.00;85.00;;;;;;5038782;28;20485;-64
2022/12/21 09:28:01;;;;;;;1.45;0.45;;;17.90;85.20;;;;;;5036152;28;20573;-61
2022/12/21 09:30:30;;;;;;;4.25;0.40;;;17.90;85.80;;;;;;5054108;28;20113;-62
2022/12/21 09:32:57;;;;;;;2.47;0.40;;;17.80;86.90;;;;;;5056933;28;20111;-62
2022/12/21 09:35:24;;;;;;;4.70;0.98;;;17.80;88.00;;;;;;5039516;28;20028;-60
2022/12/21 09:37:52;;;;;;;1.52;0.40;;;17.70;89.60;;;;;;5036973;28;20040;-62
2022/12/21 09:40:21;;;;;;;2.35;0.40;;;17.60;90.20;;;;;;5035979;28;20032;-61
2022/12/21 09:43:13;;;;;;;2.92;0.60;;;17.50;91.00;;;;;;5042637;28;20076;-60
2022/12/21 09:45:53;;;;;;;3.03;0.50;;;17.60;91.80;;;;;;5047412;28;20074;-60
2022/12/21 09:48:24;;;;;;;3.83;0.60;;;17.50;92.40;;;;;;5039907;28;20017;-61
2022/12/21 09:51:19;;;;;;;2.83;0.60;;;17.40;93.00;;;;;;5035328;28;20039;-61
2022/12/21 09:54:11;;;;;;;3.75;0.60;;;17.40;93.50;;;;;;5030561;28;20041;-57
2022/12/21 09:56:42;;;;;;;1.00;0.45;;;17.30;94.10;;;;;;5042718;28;20398;-62
2022/12/21 09:59:19;;;;;;;4.22;0.40;;;17.30;94.70;;;;;;5036328;28;20052;-63
2022/12/21 10:01:52;;;;;;;1.40;0.40;;;17.20;95.10;;;;;;5029594;28;20039;-63
2022/12/21 10:04:29;;;;;;;2.03;0.75;;;17.20;95.80;;;;;;5049054;28;20025;-64
2022/12/21 10:07:38;;;;;;;4.25;0.43;;;17.20;96.30;;;;;;5050850;28;20526;-62
2022/12/21 10:10:23;;;;;;;2.22;0.55;;;17.10;96.70;;;;;;5044672;28;20030;-63
2022/12/21 10:12:52;;;;;;;;;;;17.00;97.20;;;;;;5038124;28;20029;-62
2022/12/21 10:15:34;;;;;;;2.80;0.68;;;17.00;97.80;;;;;;5046641;28;20586;-62
2022/12/21 10:18:12;;;;;;;7.00;0.82;;;16.90;98.10;;;;;;5042355;28;20367;-61
2022/12/21 10:21:10;;;;;;;6.20;0.68;;;16.90;98.60;;;;;;5032383;28;20075;-62
2022/12/21 10:23:47;;;;;;;6.10;0.68;;;16.80;99.00;;;;;;5055667;28;20047;-62
2022/12/21 10:26:18;;;;;;;5.25;0.60;;;16.70;98.90;;;;;;5050062;28;20044;-63
2022/12/21 10:29:07;;;;;;;4.30;0.82;;;16.60;99.30;;;;;;5050587;28;20049;-63
2022/12/21 10:31:38;;;;;;;4.30;0.73;;;16.50;99.90;;;;;;5042244;28;20017;-62
2022/12/21 10:34:24;;;;;;;3.45;1.33;;;16.50;99.90;;;;;;5033492;28;20195;-64
2022/12/21 10:36:56;;;;;;;1.13;0.50;;;16.50;99.90;;;;;;5044771;28;20447;-60
2022/12/21 10:39:23;;;;;;;2.03;0.47;;;16.50;99.90;;;;;;5045275;28;20104;-65
2022/12/21 10:42:16;;;;;;;4.32;0.80;;;16.50;99.90;;;;;;5036154;28;20033;-62
2022/12/21 10:44:44;;;;;;;3.90;0.95;;;16.40;99.90;;;;;;5035006;28;20071;-63
2022/12/21 10:47:15;;;;;;;4.65;0.68;;;16.40;99.90;;;;;;5051384;28;20109;-63
2022/12/21 10:50:01;;;;;;;3.83;0.70;;;16.20;99.90;;;;;;5033636;28;20490;-62
2022/12/21 10:52:42;;;;;;;6.38;0.80;;;16.10;99.90;;;;;;5040587;28;20074;-62
2022/12/21 10:55:19;;;;;;;2.75;0.73;;;16.00;99.90;;;;;;5047499;28;20091;-63
2022/12/21 10:58:23;;;;;;;3.60;0.85;;;15.90;99.90;;;;;;5033514;28;20394;-62
2022/12/21 11:00:57;;;;;;;4.77;1.03;;;15.90;99.90;;;;;;5031326;28;20033;-62
2022/12/21 11:03:39;;;;;;;3.22;1.00;;;15.80;99.90;;;;;;5042860;28;20498;-62
2022/12/21 11:06:16;;;;;;;3.78;1.45;;;15.80;99.90;;;;;;5047836;28;20110;-62
2022/12/21 11:08:54;;;;;;;3.28;1.15;;;15.70;99.90;;;;;;5042829;28;20103;-63
2022/12/21 11:11:36;;;;;;;2.50;0.68;;;15.70;99.90;;;;;;5038226;28;20417;-63
2022/12/21 11:14:12;;;;;;;3.75;1.13;;;15.70;99.90;;;;;;5049728;28;20040;-63
2022/12/21 11:16:40;;;;;;;4.32;0.82;;;15.70;99.90;;;;;;5041690;28;20025;-68
2022/12/21 11:19:13;;;;;;;2.10;0.90;;;15.80;99.90;;;;;;5049915;28;20060;-63
2022/12/21 11:21:46;;;;;;;3.05;0.60;;;15.70;99.90;;;;;;5049778;28;20060;-64
2022/12/21 11:24:21;;;;;;;2.38;0.80;;;15.70;99.90;;;;;;5068553;28;20092;-63
2022/12/21 11:26:58;;;;;;;3.75;0.77;;;15.70;99.90;;;;;;5053474;28;20031;-63
2022/12/21 11:29:32;;;;;;;1.38;0.52;;;15.70;99.90;;;;;;5051656;28;20029;-63
2022/12/21 11:32:06;;;;;;;4.20;0.73;;;15.60;99.90;;;;;;5042229;28;20025;-63
2022/12/21 11:34:41;;;;;;;4.30;0.70;;;15.60;99.90;;;;;;5036640;28;20049;-63
2022/12/21 11:37:22;;;;;;;4.45;0.90;;;15.60;99.90;;;;;;5040964;28;20112;-63
2022/12/21 11:39:49;;;;;;;4.30;0.70;;;15.60;99.90;;;;;;5049149;28;20031;-63
2022/12/21 11:42:19;;;;;;;7.18;1.13;;;15.70;99.90;;;;;;5038494;28;20025;-63
2022/12/21 11:44:48;;;;;;;3.70;0.57;;;15.60;99.90;;;;;;5041569;28;20020;-63
2022/12/21 11:47:36;;;;;;;3.03;0.60;;;15.60;99.90;;;;;;5052809;28;20033;-63
2022/12/21 11:50:21;;;;;;;7.50;0.93;;;15.60;99.90;;;;;;5045395;28;20057;-63
2022/12/21 11:52:59;;;;;;;2.05;0.55;;;15.60;99.90;;;;;;5056387;28;20021;-63
2022/12/21 11:55:38;;;;;;;1.92;0.55;;;15.60;99.90;;;;;;5045400;28;20036;-62
2022/12/21 11:58:35;;;;;;;1.67;0.52;;;15.50;99.90;;;;;;5042134;28;20108;-63
2022/12/21 12:01:11;;;;;;;3.05;0.70;;;15.50;99.90;;;;;;5042825;28;20025;-62
2022/12/21 12:03:56;;;;;;;4.13;0.80;;;15.50;99.90;;;;;;5042442;28;20027;-63
2022/12/21 12:06:48;;;;;;;1.67;0.60;;;15.50;99.90;;;;;;5049328;28;20028;-63
2022/12/21 12:09:38;;;;;;;3.83;0.65;;;15.50;99.90;;;;;;5039756;28;20033;-63
2022/12/21 12:12:19;;;;;;;6.57;0.80;;;15.40;99.90;;;;;;5051255;28;20021;-64
2022/12/21 12:15:25;;;;;;;3.03;0.52;;;15.40;99.90;;;;;;5044561;28;20030;-64
2022/12/21 12:18:12;;;;;;;;;;;15.40;99.90;;;;;;5062241;28;20044;-63
2022/12/21 12:21:12;;;;;;;1.05;0.38;;;15.40;99.90;;;;;;5043967;28;19908;-64
2022/12/21 12:24:04;;;;;;;4.68;0.63;;;15.40;99.90;;;;;;5053508;28;20044;-63
2022/12/21 12:26:52;;;;;;;2.67;0.63;;;15.30;99.90;;;;;;5041334;28;20559;-62
2022/12/21 12:29:53;;;;;;;4.72;0.90;;;15.20;99.90;;;;;;5050322;28;20017;-62
2022/12/21 12:32:49;;;;;;;4.53;1.02;;;15.20;99.90;;;;;;5049497;28;20359;-63
2022/12/21 12:35:22;;;;;;;0.68;0.47;;;15.10;99.90;;;;;;5051363;28;20040;-63
2022/12/21 12:37:49;;;;;;;2.50;0.55;;;15.10;99.90;;;;;;5051135;28;20025;-63
2022/12/21 12:40:19;;;;;;;5.45;0.85;;;15.10;99.90;;;;;;5037801;28;20600;-63
2022/12/21 12:43:11;;;;;;;3.30;0.63;;;15.00;99.90;;;;;;5032708;28;20026;-64
2022/12/21 12:46:02;;;;;;;1.30;0.40;;;15.00;99.90;;;;;;5037454;28;20045;-64
2022/12/21 12:48:58;;;;;;;3.20;0.75;;;15.00;99.90;;;;;;5045614;28;20129;-63
2022/12/21 12:51:33;;;;;;;6.38;0.68;;;15.00;99.90;;;;;;5029554;28;20045;-64
2022/12/21 12:54:10;;;;;;;3.47;0.60;;;15.00;99.90;;;;;;5040762;28;20041;-64
2022/12/21 12:56:52;;;;;;;6.20;1.35;;;15.00;99.90;;;;;;5040082;28;20056;-62
2022/12/21 12:59:41;;;;;;;2.33;0.63;;;15.00;99.90;;;;;;5042057;28;20017;-63
2022/12/21 13:02:43;;;;;;;3.65;0.47;;;14.90;99.90;;;;;;5047322;28;20036;-64
2022/12/21 13:05:37;;;;;;;2.58;1.20;;;14.90;99.90;;;;;;5040187;28;20029;-64
2022/12/21 13:08:38;;;;;;;4.00;0.73;;;14.90;99.90;;;;;;5035722;28;20025;-63
2022/12/21 13:11:21;;;;;;;2.72;0.80;;;14.90;99.90;;;;;;5038899;28;20100;-62
2022/12/21 13:13:52;;;;;;;2.78;0.65;;;14.90;99.90;;;;;;5049211;28;20112;-63
2022/12/21 13:16:35;;;;;;;2.33;0.75;;;14.90;99.90;;;;;;5044183;28;20025;-63
2022/12/21 13:19:11;;;;;;;4.18;0.95;;;14.90;99.90;;;;;;5046765;28;20570;-63
2022/12/21 13:21:41;;;;;;;5.35;0.77;;;14.80;99.90;;;;;;5039590;28;20017;-63
2022/12/21 13:24:15;;;;;;;3.47;1.45;;;14.80;99.90;;;;;;5037996;28;20036;-63
2022/12/21 13:26:57;;;;;;;4.03;0.70;;;14.80;99.90;;;;;;5039963;28;20107;-64
2022/12/21 13:29:53;;;;;;;5.03;1.00;;;14.70;99.90;;;;;;5050676;28;20377;-63
2022/12/21 13:32:27;;;;;;;3.80;0.88;;;14.70;99.90;;;;;;5038032;28;20037;-63
2022/12/21 13:34:57;;;;;;;1.67;0.80;;;14.70;99.90;;;;;;5046409;28;20069;-63
2022/12/21 13:37:26;;;;;;;3.17;0.60;;;14.60;99.90;;;;;;5029796;28;20300;-63
2022/12/21 13:40:18;;;;;;;2.33;0.45;;;14.60;99.90;;;;;;5029738;28;20025;-63